Time;durP1;ratioP1;P1;durP2;ratioP2;P2;SDS_P1;SDS_P2;PMS_P1;PMS_P2;Temp;Humidity;BMP_temperature;BMP_pressure;BME280_temperature;BME280_humidity;BME280_pressure;Samples;Min_cycle;Max_cycle;Signal;HPM_P1;HPM_P2
2021/08/29 00:01:30;;;;;;;6.10;5.60;;;16.70;97.60;;;;;;4938225;29;20805;-92
2021/08/29 00:04:05;;;;;;;6.33;5.33;;;16.40;96.20;;;;;;4937014;29;20452;-92
2021/08/29 00:06:32;;;;;;;6.17;5.70;;;16.80;97.10;;;;;;4959626;28;20421;-91
2021/08/29 00:12:19;;;;;;;5.10;4.50;;;19.60;99.10;;;;;;4970024;28;20181;-93
2021/08/29 00:15:07;;;;;;;5.43;4.90;;;16.50;98.40;;;;;;4962083;28;20433;-91
2021/08/29 00:17:39;;;;;;;5.83;5.27;;;17.20;97.10;;;;;;4979174;28;20425;-91
2021/08/29 00:20:16;;;;;;;8.20;5.53;;;16.20;97.70;;;;;;4980491;28;20473;-91
2021/08/29 00:22:43;;;;;;;6.80;5.67;;;16.60;96.80;;;;;;4995937;28;20440;-92
2021/08/29 00:25:28;;;;;;;;;;;;;;;;;;;;;
2021/08/29 00:28:00;;;;;;;5.40;4.80;;;16.00;97.20;;;;;;4989651;28;20429;-91
2021/08/29 00:30:28;;;;;;;7.07;6.30;;;17.80;97.90;;;;;;4961835;28;20895;-91
2021/08/29 00:32:55;;;;;;;6.13;5.60;;;17.80;98.60;;;;;;4995127;28;20420;-92
2021/08/29 00:35:21;;;;;;;5.43;5.10;;;15.90;97.10;;;;;;4977989;28;20440;-91
2021/08/29 00:37:47;;;;;;;6.83;6.20;;;16.20;96.60;;;;;;4976348;28;20417;-91
2021/08/29 00:40:27;;;;;;;5.80;5.50;;;18.50;99.00;;;;;;4979013;28;20422;-91
2021/08/29 00:43:21;;;;;;;6.60;5.80;;;16.40;96.10;;;;;;4980496;28;20420;-91
2021/08/29 00:46:03;;;;;;;7.53;5.93;;;16.20;96.50;;;;;;4995851;28;20402;-91
2021/08/29 00:48:33;;;;;;;7.83;6.23;;;16.90;96.20;;;;;;4964621;28;20409;-92
2021/08/29 00:51:20;;;;;;;8.50;7.03;;;16.20;97.50;;;;;;4979372;28;20390;-92
2021/08/29 00:54:02;;;;;;;6.43;5.93;;;14.30;94.70;;;;;;4978758;28;20433;-91
2021/08/29 00:56:36;;;;;;;7.00;6.47;;;16.40;96.00;;;;;;4974766;28;20476;-91
2021/08/29 00:59:12;;;;;;;7.20;6.70;;;15.60;97.10;;;;;;4979195;28;20465;-91
2021/08/29 01:02:02;;;;;;;9.30;6.73;;;16.60;97.20;;;;;;4998547;28;20404;-91
2021/08/29 01:04:48;;;;;;;6.80;6.30;;;14.90;95.70;;;;;;4974915;28;20417;-91
2021/08/29 01:07:48;;;;;;;6.30;5.70;;;18.00;98.30;;;;;;4977059;28;20436;-92
2021/08/29 01:10:41;;;;;;;6.00;5.60;;;16.00;96.70;;;;;;4981939;28;20417;-91
2021/08/29 01:13:12;;;;;;;6.87;6.27;;;16.30;96.40;;;;;;4977444;28;20444;-91
2021/08/29 01:15:48;;;;;;;6.60;6.10;;;16.50;97.10;;;;;;4978172;28;20494;-92
2021/08/29 01:18:26;;;;;;;5.73;5.50;;;16.20;96.30;;;;;;4962088;28;20425;-92
2021/08/29 01:21:34;;;;;;;5.83;5.43;;;16.20;97.10;;;;;;4983216;28;20413;-93
2021/08/29 01:24:05;;;;;;;5.77;5.27;;;16.20;96.30;;;;;;4978726;28;20432;-91
2021/08/29 01:27:17;;;;;;;6.83;5.43;;;16.00;96.50;;;;;;4976895;28;20438;-92
2021/08/29 01:30:07;;;;;;;5.80;5.40;;;16.30;96.20;;;;;;4983289;28;20479;-91
2021/08/29 01:33:07;;;;;;;;;;;;;;;;;;;;;
2021/08/29 01:38:37;;;;;;;5.43;5.10;;;16.50;96.10;;;;;;4994069;28;20406;-92
2021/08/29 01:41:15;;;;;;;5.27;4.87;;;16.20;96.50;;;;;;4965604;28;20436;-91
2021/08/29 01:43:54;;;;;;;5.20;4.80;;;16.50;97.10;;;;;;4995406;28;20441;-91
2021/08/29 01:46:24;;;;;;;8.73;5.20;;;15.10;95.70;;;;;;4954671;28;20414;-91
2021/08/29 01:48:50;;;;;;;8.80;4.80;;;17.20;97.40;;;;;;4977075;28;20431;-91
2021/08/29 01:51:20;;;;;;;5.53;4.93;;;15.90;96.60;;;;;;4974142;28;20413;-92
2021/08/29 01:53:56;;;;;;;8.27;5.37;;;16.30;96.40;;;;;;4974832;28;20512;-92
2021/08/29 01:56:59;;;;;;;5.23;4.93;;;16.50;97.00;;;;;;4978955;28;20476;-91
2021/08/29 01:59:45;;;;;;;;;;;;;;;;;;;;;
2021/08/29 02:02:23;;;;;;;4.70;4.50;;;15.90;95.90;;;;;;5015567;28;20432;-91
2021/08/29 02:04:49;;;;;;;5.53;4.77;;;16.00;96.10;;;;;;4990252;28;20416;-91
2021/08/29 02:07:29;;;;;;;5.47;4.90;;;16.00;97.10;;;;;;4991914;28;20464;-91
2021/08/29 02:10:12;;;;;;;5.70;4.97;;;16.00;96.40;;;;;;4993894;28;20412;-91
2021/08/29 02:12:53;;;;;;;5.63;5.10;;;16.00;96.90;;;;;;4994326;28;20475;-91
2021/08/29 02:15:58;;;;;;;5.57;5.17;;;15.30;96.50;;;;;;5011208;28;20916;-91
2021/08/29 02:18:31;;;;;;;5.43;5.00;;;14.70;95.40;;;;;;4992343;28;20436;-90
2021/08/29 02:21:06;;;;;;;5.17;4.80;;;16.20;96.30;;;;;;5008689;28;20435;-91
2021/08/29 02:23:32;;;;;;;6.20;5.83;;;15.60;96.70;;;;;;4994986;28;20429;-91
2021/08/29 02:25:58;;;;;;;6.80;5.23;;;16.50;97.70;;;;;;4986397;28;20424;-91
2021/08/29 02:28:35;;;;;;;5.40;5.00;;;16.80;98.70;;;;;;5009819;28;20416;-91
2021/08/29 02:31:02;;;;;;;5.40;4.90;;;16.10;96.00;;;;;;4992539;28;20424;-92
2021/08/29 02:33:30;;;;;;;9.57;5.00;;;16.10;96.40;;;;;;4990021;28;20428;-91
2021/08/29 02:36:01;;;;;;;5.33;5.13;;;15.90;97.30;;;;;;4997160;28;20436;-90
2021/08/29 02:38:51;;;;;;;8.70;6.10;;;17.20;97.60;;;;;;4998687;28;20476;-91
2021/08/29 02:41:36;;;;;;;5.37;4.83;;;16.30;97.30;;;;;;4987444;28;20464;-92
2021/08/29 02:44:11;;;;;;;6.23;4.80;;;15.80;96.50;;;;;;5009471;28;20388;-92
2021/08/29 02:46:39;;;;;;;5.03;4.50;;;16.10;96.80;;;;;;5008336;28;20411;-92
2021/08/29 02:49:05;;;;;;;6.37;5.73;;;17.10;98.90;;;;;;4998788;28;20486;-91
2021/08/29 02:51:31;;;;;;;5.20;4.90;;;16.30;97.50;;;;;;4991103;28;20486;-92
2021/08/29 02:53:57;;;;;;;5.10;4.70;;;16.10;98.10;;;;;;4988675;28;20428;-91
2021/08/29 02:56:23;;;;;;;5.37;5.07;;;18.00;98.60;;;;;;5003164;28;20832;-90
2021/08/29 02:58:52;;;;;;;5.97;5.30;;;17.00;98.00;;;;;;4989461;28;20469;-92
2021/08/29 03:01:42;;;;;;;5.67;5.10;;;17.40;98.30;;;;;;4975502;28;20209;-92
2021/08/29 03:04:10;;;;;;;6.67;6.13;;;16.20;97.80;;;;;;4966476;28;20480;-90
2021/08/29 03:06:37;;;;;;;7.53;5.43;;;16.00;98.50;;;;;;4992405;28;20409;-92
2021/08/29 03:09:12;;;;;;;6.70;5.97;;;15.80;99.20;;;;;;4976907;28;20425;-91
2021/08/29 03:11:38;;;;;;;6.77;6.07;;;15.80;98.80;;;;;;4973444;28;20448;-90
2021/08/29 03:14:08;;;;;;;7.87;6.80;;;17.70;99.90;;;;;;4986757;28;20977;-91
2021/08/29 03:16:34;;;;;;;10.60;6.80;;;15.60;99.90;;;;;;4972689;28;20468;-90
2021/08/29 03:19:01;;;;;;;10.50;5.93;;;15.70;99.90;;;;;;4971404;28;20825;-90
2021/08/29 03:21:30;;;;;;;6.23;5.83;;;17.80;99.90;;;;;;4972578;28;20633;-90
2021/08/29 03:23:56;;;;;;;8.17;6.73;;;15.60;99.90;;;;;;4974661;28;20421;-91
2021/08/29 03:26:22;;;;;;;9.80;6.73;;;15.50;99.90;;;;;;4973032;28;20424;-91
2021/08/29 03:28:48;;;;;;;9.63;7.00;;;15.60;99.90;;;;;;4969721;28;20424;-90
2021/08/29 03:31:14;;;;;;;6.30;5.90;;;15.50;99.90;;;;;;4970983;28;20441;-91
2021/08/29 03:33:43;;;;;;;8.43;6.83;;;16.90;99.90;;;;;;4987789;28;20417;-91
2021/08/29 03:36:11;;;;;;;7.53;6.83;;;16.80;99.90;;;;;;4970098;28;20469;-90
2021/08/29 03:38:39;;;;;;;7.37;6.77;;;16.00;99.90;;;;;;4988050;28;20405;-92
2021/08/29 03:41:06;;;;;;;6.67;5.90;;;17.00;99.90;;;;;;4971945;28;20433;-91
2021/08/29 03:43:32;;;;;;;7.73;7.03;;;16.50;99.90;;;;;;4969889;28;20476;-90
2021/08/29 03:45:58;;;;;;;7.50;7.00;;;15.40;99.90;;;;;;4966440;28;20421;-89
2021/08/29 03:48:24;;;;;;;9.10;7.63;;;16.70;99.90;;;;;;4965394;28;20425;-90
2021/08/29 03:50:51;;;;;;;10.07;6.60;;;15.50;99.90;;;;;;4986149;28;20424;-91
2021/08/29 03:53:17;;;;;;;7.13;6.63;;;15.60;99.90;;;;;;4988852;28;20417;-90
2021/08/29 03:55:45;;;;;;;8.47;6.80;;;14.10;99.90;;;;;;4988008;28;20445;-92
2021/08/29 03:58:15;;;;;;;10.43;7.13;;;15.60;99.90;;;;;;4975031;28;20431;-91
2021/08/29 04:00:40;;;;;;;8.23;7.27;;;15.70;99.90;;;;;;4956807;28;20460;-90
2021/08/29 04:03:06;;;;;;;9.20;6.10;;;15.60;99.90;;;;;;4974399;28;20429;-91
2021/08/29 04:05:34;;;;;;;9.57;6.60;;;15.60;99.90;;;;;;4969015;28;20468;-90
2021/08/29 04:08:01;;;;;;;8.07;6.30;;;17.70;99.90;;;;;;4966619;28;20437;-90
2021/08/29 04:10:30;;;;;;;12.10;7.00;;;15.70;99.90;;;;;;4957381;28;20425;-89
2021/08/29 04:12:56;;;;;;;12.70;6.17;;;15.70;99.90;;;;;;4970329;28;20465;-91
2021/08/29 04:15:28;;;;;;;7.23;6.50;;;16.90;99.90;;;;;;4969417;28;20472;-90
2021/08/29 04:17:57;;;;;;;10.53;7.10;;;15.60;99.90;;;;;;4971981;28;20166;-91
2021/08/29 04:20:26;;;;;;;9.03;6.80;;;15.80;99.90;;;;;;4990305;28;20406;-91
2021/08/29 04:22:52;;;;;;;9.77;6.53;;;15.60;99.90;;;;;;4970559;28;20431;-90
2021/08/29 04:25:18;;;;;;;9.50;6.47;;;15.60;99.90;;;;;;4971008;28;20512;-91
2021/08/29 04:27:44;;;;;;;13.50;6.27;;;16.80;99.90;;;;;;4972823;28;20421;-90
2021/08/29 04:30:11;;;;;;;14.73;7.67;;;15.50;99.90;;;;;;4971903;28;20440;-91
2021/08/29 04:32:41;;;;;;;11.17;6.87;;;15.80;99.90;;;;;;4989346;28;20409;-91
2021/08/29 04:35:11;;;;;;;7.67;6.30;;;15.30;99.90;;;;;;4970104;28;20525;-91
2021/08/29 04:37:37;;;;;;;7.17;6.43;;;15.80;99.90;;;;;;4987797;28;20483;-90
2021/08/29 04:40:03;;;;;;;8.30;5.77;;;16.70;99.90;;;;;;4969040;28;20421;-91
2021/08/29 04:42:29;;;;;;;10.10;6.37;;;15.50;99.90;;;;;;4971331;28;20205;-90
2021/08/29 04:44:59;;;;;;;12.30;6.83;;;15.60;99.90;;;;;;4974659;28;20440;-90
2021/08/29 04:47:28;;;;;;;11.63;6.70;;;17.00;99.90;;;;;;4971083;28;20534;-91
2021/08/29 04:49:53;;;;;;;13.73;9.27;;;14.30;99.90;;;;;;4963437;28;20429;-89
2021/08/29 04:52:19;;;;;;;16.50;7.03;;;17.60;99.90;;;;;;4287162;28;10000747;-90
2021/08/29 04:54:47;;;;;;;8.17;7.20;;;17.40;99.90;;;;;;4948544;29;20542;-90
2021/08/29 04:57:14;;;;;;;12.37;6.63;;;16.10;99.90;;;;;;4955620;29;20202;-92
2021/08/29 04:59:41;;;;;;;7.53;6.40;;;15.50;99.90;;;;;;4961376;28;20470;-90
2021/08/29 05:02:08;;;;;;;6.93;5.90;;;15.20;99.90;;;;;;4951709;28;20445;-91
2021/08/29 05:04:34;;;;;;;9.07;6.90;;;16.60;99.90;;;;;;4969604;28;20481;-91
2021/08/29 05:07:01;;;;;;;9.17;7.53;;;16.30;99.90;;;;;;4985701;28;20446;-91
2021/08/29 05:09:28;;;;;;;6.20;5.70;;;15.70;99.90;;;;;;4971353;28;20252;-91
2021/08/29 05:12:07;;;;;;;9.90;7.13;;;15.60;99.90;;;;;;4972511;28;20433;-92
2021/08/29 05:14:33;;;;;;;10.90;6.93;;;15.80;99.90;;;;;;4974167;28;20453;-91
2021/08/29 05:17:00;;;;;;;6.10;5.53;;;15.80;99.90;;;;;;4973502;28;20479;-91
2021/08/29 05:19:25;;;;;;;6.73;6.03;;;17.30;99.90;;;;;;4985851;28;20414;-91
2021/08/29 05:21:53;;;;;;;9.40;6.70;;;14.80;99.90;;;;;;4985827;28;20469;-91
2021/08/29 05:24:19;;;;;;;7.60;7.00;;;15.80;99.90;;;;;;4971030;28;20578;-91
2021/08/29 05:26:45;;;;;;;10.63;6.40;;;15.70;99.90;;;;;;4987970;28;20448;-90
2021/08/29 05:29:11;;;;;;;11.17;6.77;;;15.90;99.90;;;;;;4969838;28;20417;-90
2021/08/29 05:31:37;;;;;;;7.97;7.27;;;15.80;99.90;;;;;;4950702;28;20189;-92
2021/08/29 05:34:02;;;;;;;13.50;6.50;;;17.50;99.90;;;;;;4966087;28;20489;-90
2021/08/29 05:36:32;;;;;;;7.33;6.17;;;15.80;99.90;;;;;;4971278;28;20241;-91
2021/08/29 05:38:58;;;;;;;9.00;7.53;;;15.70;99.90;;;;;;4971645;28;20178;-91
2021/08/29 05:41:23;;;;;;;12.73;7.13;;;17.60;99.90;;;;;;4971240;28;20454;-91
2021/08/29 05:43:49;;;;;;;6.73;6.07;;;17.60;99.90;;;;;;4976129;28;20169;-92
2021/08/29 05:46:16;;;;;;;10.50;6.73;;;15.20;99.90;;;;;;4993942;28;20162;-91
2021/08/29 05:48:50;;;;;;;8.60;7.20;;;16.00;99.90;;;;;;4997503;28;20432;-90
2021/08/29 05:51:19;;;;;;;12.20;6.40;;;16.00;99.90;;;;;;4980568;28;20181;-91
2021/08/29 05:53:45;;;;;;;21.83;8.40;;;17.20;99.90;;;;;;4981995;28;20426;-90
2021/08/29 05:56:12;;;;;;;8.83;6.40;;;16.20;99.90;;;;;;4999009;28;20469;-90
2021/08/29 05:58:42;;;;;;;6.13;5.73;;;16.20;99.90;;;;;;4999238;28;20449;-90
2021/08/29 06:01:15;;;;;;;7.07;6.37;;;15.70;99.90;;;;;;4979151;28;20445;-90
2021/08/29 06:03:41;;;;;;;9.60;6.40;;;16.10;99.90;;;;;;4980715;28;20441;-89
2021/08/29 06:06:11;;;;;;;9.20;7.10;;;15.10;99.70;;;;;;4980880;28;20412;-92
2021/08/29 06:08:37;;;;;;;6.27;5.93;;;16.30;99.80;;;;;;4976389;28;20424;-91
2021/08/29 06:11:12;;;;;;;7.80;5.83;;;16.20;99.90;;;;;;4975655;28;20449;-89
2021/08/29 06:13:38;;;;;;;8.97;6.57;;;17.00;99.90;;;;;;4972975;28;20192;-91
2021/08/29 06:16:04;;;;;;;10.00;7.20;;;15.80;99.90;;;;;;4971352;28;20473;-90
2021/08/29 06:18:30;;;;;;;8.57;7.23;;;16.20;99.90;;;;;;4954889;28;20444;-90
2021/08/29 06:21:14;;;;;;;8.43;6.03;;;16.60;99.90;;;;;;4994409;28;20413;-90
2021/08/29 06:23:41;;;;;;;6.90;6.40;;;16.10;99.70;;;;;;4983000;28;20189;-89
2021/08/29 06:26:07;;;;;;;12.23;6.63;;;16.40;99.90;;;;;;4980701;28;20468;-89
2021/08/29 06:28:35;;;;;;;9.93;6.87;;;18.10;99.90;;;;;;4996790;28;20417;-91
2021/08/29 06:31:05;;;;;;;11.97;6.37;;;16.10;99.90;;;;;;4995970;28;20265;-91
2021/08/29 06:33:31;;;;;;;8.33;6.47;;;16.20;99.90;;;;;;4963245;28;20437;-91
2021/08/29 06:35:56;;;;;;;7.90;6.90;;;16.70;99.90;;;;;;4994374;28;20448;-91
2021/08/29 06:38:24;;;;;;;6.77;6.07;;;16.10;99.90;;;;;;4978031;28;20178;-90
2021/08/29 06:40:50;;;;;;;8.47;6.13;;;16.30;99.90;;;;;;4976824;28;20181;-90
2021/08/29 06:43:16;;;;;;;9.60;6.37;;;15.60;99.90;;;;;;4975210;28;20413;-91
2021/08/29 06:45:42;;;;;;;8.10;6.60;;;18.00;99.90;;;;;;4975655;28;20181;-91
2021/08/29 06:48:07;;;;;;;9.97;6.40;;;17.90;99.90;;;;;;4970037;28;20179;-92
2021/08/29 06:50:33;;;;;;;11.60;7.97;;;17.20;99.90;;;;;;4963378;28;20181;-90
2021/08/29 06:52:59;;;;;;;9.57;7.10;;;16.70;99.90;;;;;;4979267;28;20178;-91
2021/08/29 06:55:25;;;;;;;13.43;7.70;;;17.20;99.90;;;;;;4979379;28;20170;-91
2021/08/29 06:57:50;;;;;;;8.67;7.53;;;17.30;99.90;;;;;;4979556;28;20921;-90
2021/08/29 07:00:16;;;;;;;8.27;6.90;;;15.70;99.90;;;;;;4960884;28;20237;-89
2021/08/29 07:02:41;;;;;;;14.37;5.83;;;16.00;99.90;;;;;;4963700;28;20181;-90
2021/08/29 07:05:08;;;;;;;6.53;5.93;;;15.60;99.90;;;;;;4961476;28;20583;-91
2021/08/29 07:07:33;;;;;;;7.37;5.93;;;16.00;99.90;;;;;;4976634;28;20178;-90
2021/08/29 07:09:59;;;;;;;10.57;6.90;;;17.10;99.90;;;;;;4976633;28;20481;-90
2021/08/29 07:12:25;;;;;;;10.03;6.50;;;15.90;99.90;;;;;;4976697;28;20178;-92
2021/08/29 07:14:50;;;;;;;7.47;5.93;;;15.80;99.90;;;;;;4977129;28;20948;-91
2021/08/29 07:17:18;;;;;;;5.93;5.43;;;16.50;99.90;;;;;;4976599;28;20674;-90
2021/08/29 07:19:45;;;;;;;20.27;6.83;;;16.10;99.90;;;;;;4960434;28;20182;-90
2021/08/29 07:22:11;;;;;;;6.57;6.03;;;17.20;99.90;;;;;;4959960;28;20433;-92
2021/08/29 07:24:37;;;;;;;9.97;6.10;;;15.80;99.90;;;;;;4960350;28;20917;-91
2021/08/29 07:27:03;;;;;;;6.87;5.47;;;16.60;99.90;;;;;;4979254;28;20501;-93
2021/08/29 07:29:48;;;;;;;11.83;7.10;;;15.80;99.90;;;;;;4961843;28;20186;-91
2021/08/29 07:32:13;;;;;;;10.47;6.30;;;14.90;99.90;;;;;;4960761;28;20174;-92
2021/08/29 07:34:40;;;;;;;8.27;6.10;;;17.00;99.90;;;;;;4978834;28;20428;-91
2021/08/29 07:37:06;;;;;;;9.90;7.00;;;16.90;99.90;;;;;;4977155;28;20205;-90
2021/08/29 07:39:32;;;;;;;9.23;6.23;;;16.00;99.90;;;;;;4999074;28;20486;-88
2021/08/29 07:41:58;;;;;;;12.43;6.37;;;17.10;99.90;;;;;;4986445;28;20495;-91
2021/08/29 07:44:26;;;;;;;13.93;6.80;;;17.20;99.90;;;;;;4282283;28;10000737;-91
2021/08/29 07:46:52;;;;;;;6.80;5.67;;;17.50;99.90;;;;;;4958921;28;20307;-92
2021/08/29 07:49:18;;;;;;;10.17;6.00;;;17.60;99.90;;;;;;4959331;28;20422;-92
2021/08/29 07:51:43;;;;;;;10.70;5.47;;;17.30;99.90;;;;;;4960083;28;20178;-90
2021/08/29 07:54:09;;;;;;;6.33;5.80;;;18.70;99.90;;;;;;4962696;28;20265;-90
2021/08/29 07:56:38;;;;;;;6.57;5.50;;;17.20;99.90;;;;;;4980414;28;20256;-91
2021/08/29 07:59:03;;;;;;;7.63;5.63;;;18.00;99.90;;;;;;4987025;28;20678;-90
2021/08/29 08:01:29;;;;;;;7.97;6.50;;;16.00;99.90;;;;;;4968706;28;20461;-90
2021/08/29 08:03:55;;;;;;;7.17;6.23;;;15.50;99.90;;;;;;4997181;28;20185;-89
2021/08/29 08:06:20;;;;;;;7.27;6.13;;;16.90;99.90;;;;;;4979984;28;20177;-91
2021/08/29 08:08:46;;;;;;;7.23;5.57;;;17.70;99.90;;;;;;4979740;28;20193;-91
2021/08/29 08:11:11;;;;;;;6.10;5.77;;;17.30;99.90;;;;;;4997094;28;20183;-92
2021/08/29 08:13:40;;;;;;;5.37;4.50;;;16.10;99.90;;;;;;4979953;28;20189;-91
2021/08/29 08:16:06;;;;;;;6.10;4.53;;;15.90;99.90;;;;;;4972506;29;20201;-89
2021/08/29 08:18:31;;;;;;;5.00;4.70;;;16.10;99.90;;;;;;4977551;28;20414;-89
2021/08/29 08:20:57;;;;;;;5.03;4.63;;;15.30;99.90;;;;;;4957948;29;20183;-90
2021/08/29 08:23:23;;;;;;;5.00;4.57;;;16.00;99.90;;;;;;4972710;28;20175;-91
2021/08/29 08:25:48;;;;;;;5.53;4.80;;;17.80;99.90;;;;;;4966002;28;20206;-90
2021/08/29 08:28:16;;;;;;;5.10;4.70;;;15.60;99.90;;;;;;4967151;28;20166;-90
2021/08/29 08:30:44;;;;;;;4.97;4.57;;;16.00;99.90;;;;;;4949234;29;20482;-90
2021/08/29 08:33:09;;;;;;;6.45;5.53;;;17.80;99.90;;;;;;4966313;28;20428;-89
2021/08/29 08:35:38;;;;;;;5.93;4.27;;;17.40;99.90;;;;;;4962861;28;20171;-90
2021/08/29 08:38:06;;;;;;;4.50;3.80;;;16.70;99.90;;;;;;4960975;28;20186;-90
2021/08/29 08:40:41;;;;;;;4.83;4.43;;;16.70;99.90;;;;;;4960339;28;20419;-90
2021/08/29 08:43:07;;;;;;;3.97;3.47;;;15.10;99.90;;;;;;4942084;29;20441;-90
2021/08/29 08:45:34;;;;;;;4.27;3.90;;;15.90;99.90;;;;;;4942107;29;20487;-90
2021/08/29 08:48:01;;;;;;;4.20;3.83;;;17.40;99.90;;;;;;4941202;29;20517;-89
2021/08/29 08:50:28;;;;;;;4.20;3.80;;;16.00;99.90;;;;;;4973871;28;20457;-89
2021/08/29 08:52:56;;;;;;;4.77;4.50;;;16.00;99.90;;;;;;4988268;28;20432;-92
2021/08/29 08:55:22;;;;;;;4.80;4.40;;;18.20;99.90;;;;;;4961774;28;20421;-90
2021/08/29 08:57:49;;;;;;;5.10;4.30;;;18.30;99.90;;;;;;4979007;28;20867;-89
2021/08/29 09:00:15;;;;;;;5.20;4.80;;;15.50;99.90;;;;;;4988608;28;20468;-89
2021/08/29 09:02:44;;;;;;;5.73;5.10;;;16.80;99.90;;;;;;4995767;28;20413;-89
2021/08/29 09:05:13;;;;;;;4.73;4.53;;;16.30;99.90;;;;;;4999132;28;20177;-91
2021/08/29 09:07:39;;;;;;;4.10;3.90;;;17.50;99.90;;;;;;4997925;28;20404;-88
2021/08/29 09:10:08;;;;;;;4.50;4.27;;;17.80;99.90;;;;;;4981342;28;20420;-90
2021/08/29 09:12:34;;;;;;;5.17;4.80;;;16.10;99.90;;;;;;4998804;28;20748;-91
2021/08/29 09:14:59;;;;;;;5.73;5.33;;;16.80;99.90;;;;;;4985009;28;20448;-90
2021/08/29 09:17:34;;;;;;;5.10;4.70;;;16.00;99.90;;;;;;4982050;28;20217;-90
2021/08/29 09:20:20;;;;;;;4.03;3.60;;;16.00;99.90;;;;;;4985654;28;20834;-90
2021/08/29 09:22:56;;;;;;;4.43;4.20;;;16.10;99.90;;;;;;4982148;28;20432;-91
2021/08/29 09:25:31;;;;;;;4.43;4.20;;;17.80;99.90;;;;;;4983127;28;20420;-90
2021/08/29 09:28:00;;;;;;;4.33;4.03;;;16.00;99.90;;;;;;4982295;28;20426;-90
2021/08/29 09:30:31;;;;;;;4.33;3.80;;;16.60;99.90;;;;;;4999833;28;20412;-90
2021/08/29 09:33:04;;;;;;;4.07;3.77;;;16.10;99.90;;;;;;4981478;28;20432;-88
2021/08/29 09:35:35;;;;;;;4.37;4.07;;;16.40;99.90;;;;;;4985719;28;20424;-88
2021/08/29 09:38:02;;;;;;;4.37;3.97;;;18.20;99.90;;;;;;5002032;28;20412;-89
2021/08/29 09:40:37;;;;;;;7.80;4.00;;;18.00;99.90;;;;;;4982252;28;20409;-90
2021/08/29 09:43:06;;;;;;;3.80;3.70;;;16.00;99.90;;;;;;4984034;28;20428;-91
2021/08/29 09:45:34;;;;;;;3.93;3.73;;;15.90;99.90;;;;;;4983112;28;20423;-89
2021/08/29 09:48:06;;;;;;;3.83;3.30;;;17.00;99.90;;;;;;5000291;28;20817;-90
2021/08/29 09:50:35;;;;;;;3.63;3.15;;;16.00;99.90;;;;;;4623233;28;10000726;-90
2021/08/29 09:53:13;;;;;;;3.23;3.13;;;16.10;99.90;;;;;;4980588;28;20454;-90
2021/08/29 09:55:46;;;;;;;2.73;2.53;;;16.20;99.90;;;;;;4981173;28;20515;-90
2021/08/29 09:58:34;;;;;;;3.17;2.97;;;16.30;99.90;;;;;;5002829;28;20467;-91
2021/08/29 10:01:11;;;;;;;3.30;3.30;;;17.60;99.90;;;;;;4964942;28;20461;-90
2021/08/29 10:03:42;;;;;;;3.03;2.93;;;16.30;99.90;;;;;;4962929;28;20424;-90
2021/08/29 10:06:27;;;;;;;2.63;2.50;;;15.90;99.90;;;;;;4984650;28;20421;-90
2021/08/29 10:09:01;;;;;;;2.37;2.30;;;16.10;99.90;;;;;;4964661;28;20428;-90
2021/08/29 10:11:29;;;;;;;1.93;1.87;;;15.80;99.90;;;;;;4979715;28;20417;-90
2021/08/29 10:13:55;;;;;;;2.40;2.30;;;17.80;99.90;;;;;;4967214;28;21016;-88
2021/08/29 10:16:27;;;;;;;2.10;1.97;;;15.80;99.90;;;;;;4966734;28;20471;-89
2021/08/29 10:18:54;;;;;;;3.07;2.77;;;16.40;99.90;;;;;;4962211;28;20436;-88
2021/08/29 10:21:23;;;;;;;2.60;2.40;;;15.50;99.90;;;;;;4980670;28;20437;-91
2021/08/29 10:23:53;;;;;;;2.07;2.03;;;15.90;99.90;;;;;;4981393;28;20414;-88
2021/08/29 10:26:21;;;;;;;2.80;2.60;;;17.90;99.90;;;;;;4980368;28;20943;-90
2021/08/29 10:29:11;;;;;;;2.93;2.70;;;16.80;99.90;;;;;;4981047;28;20417;-89
2021/08/29 10:32:00;;;;;;;2.93;2.80;;;15.90;99.90;;;;;;4975920;28;20492;-89
2021/08/29 10:34:28;;;;;;;3.43;3.20;;;17.00;99.90;;;;;;4980729;28;20417;-90
2021/08/29 10:36:56;;;;;;;2.73;2.63;;;17.10;99.90;;;;;;4966069;28;20465;-89
2021/08/29 10:39:22;;;;;;;2.80;2.80;;;16.00;99.90;;;;;;4983084;28;20409;-89
2021/08/29 10:44:55;;;;;;;2.90;2.70;;;16.60;99.90;;;;;;5190062;23;20485;-91
2021/08/29 10:47:22;;;;;;;2.63;2.63;;;15.40;99.90;;;;;;4968994;28;20476;-91
2021/08/29 10:49:48;;;;;;;4.33;3.00;;;17.40;99.90;;;;;;4984362;28;20901;-87
2021/08/29 10:52:15;;;;;;;3.17;3.00;;;16.50;99.90;;;;;;4967092;28;20430;-91
2021/08/29 10:55:07;;;;;;;3.50;3.40;;;16.20;99.90;;;;;;4953653;28;20426;-91
2021/08/29 10:57:49;;;;;;;;;;;;;;;;;;;;;
2021/08/29 11:00:27;;;;;;;2.77;2.67;;;16.60;99.90;;;;;;4984829;28;20866;-90
2021/08/29 11:02:54;;;;;;;5.17;4.77;;;16.20;99.90;;;;;;4967437;28;20425;-88
2021/08/29 11:05:29;;;;;;;3.70;3.23;;;17.30;99.90;;;;;;4980917;28;20778;-91
2021/08/29 11:08:23;;;;;;;4.00;3.70;;;16.90;99.90;;;;;;4983786;28;20412;-88
2021/08/29 11:10:55;;;;;;;3.17;2.93;;;15.80;99.90;;;;;;4969816;28;20471;-90
2021/08/29 11:13:34;;;;;;;3.00;2.90;;;15.70;99.90;;;;;;4963047;28;20765;-90
2021/08/29 11:16:15;;;;;;;3.43;3.23;;;16.30;99.90;;;;;;4965888;28;20497;-89
2021/08/29 11:19:02;;;;;;;50.17;29.43;;;16.30;99.90;;;;;;4963408;28;20418;-90
2021/08/29 11:21:57;;;;;;;3.50;3.30;;;14.70;99.90;;;;;;4983829;28;20421;-90
2021/08/29 11:25:13;;;;;;;;;;;;;;;;;;;;;
2021/08/29 11:27:59;;;;;;;3.50;3.27;;;16.30;99.90;;;;;;4981372;28;20956;-89
2021/08/29 11:30:35;;;;;;;4.07;3.80;;;16.30;99.90;;;;;;4968801;28;20428;-89
2021/08/29 11:33:13;;;;;;;3.70;3.40;;;16.40;99.90;;;;;;4986920;28;20405;-89
2021/08/29 11:35:49;;;;;;;3.80;3.70;;;16.40;99.90;;;;;;4966067;28;20420;-89
2021/08/29 11:38:37;;;;;;;4.37;4.10;;;16.50;99.90;;;;;;4983077;28;20420;-89
2021/08/29 11:41:18;;;;;;;5.13;4.93;;;18.00;99.90;;;;;;4982149;28;20903;-91
2021/08/29 11:43:45;;;;;;;5.50;5.30;;;17.60;99.90;;;;;;4980965;28;20491;-89
2021/08/29 11:46:15;;;;;;;6.67;6.20;;;16.70;99.90;;;;;;4981134;28;20436;-90
2021/08/29 11:48:53;;;;;;;6.67;6.20;;;16.50;99.90;;;;;;4980853;28;20857;-88
2021/08/29 11:51:44;;;;;;;6.77;6.17;;;17.50;99.90;;;;;;4965082;28;20453;-90
2021/08/29 11:54:12;;;;;;;6.93;6.50;;;16.70;99.90;;;;;;4981110;28;20405;-89
2021/08/29 11:56:43;;;;;;;7.50;6.80;;;17.90;99.90;;;;;;4964276;28;20485;-88
2021/08/29 11:59:18;;;;;;;8.67;7.90;;;16.70;99.90;;;;;;4979735;28;20429;-90
2021/08/29 12:01:46;;;;;;;8.60;7.93;;;16.60;99.90;;;;;;4980949;28;20401;-90
2021/08/29 12:04:20;;;;;;;8.77;8.13;;;16.70;99.90;;;;;;4984635;28;20409;-89
2021/08/29 12:07:05;;;;;;;8.80;8.33;;;16.80;99.90;;;;;;4982663;28;20500;-88
2021/08/29 12:09:42;;;;;;;10.07;9.10;;;16.80;99.90;;;;;;4979511;28;20421;-90
2021/08/29 12:12:16;;;;;;;9.97;8.83;;;16.90;99.90;;;;;;4981249;28;20413;-91
2021/08/29 12:14:43;;;;;;;10.30;9.50;;;18.40;99.90;;;;;;4981163;28;20409;-90
2021/08/29 12:17:13;;;;;;;10.23;9.27;;;17.20;99.90;;;;;;4981489;28;20465;-88
2021/08/29 12:19:40;;;;;;;11.10;10.00;;;16.90;99.90;;;;;;4981565;28;20409;-89
2021/08/29 12:22:09;;;;;;;10.27;9.27;;;17.00;99.90;;;;;;4981673;28;20433;-88
2021/08/29 12:24:40;;;;;;;9.23;8.60;;;18.80;99.90;;;;;;4964514;28;20452;-88
2021/08/29 12:27:23;;;;;;;10.73;9.83;;;16.90;99.90;;;;;;4965802;28;20558;-89
2021/08/29 12:30:15;;;;;;;11.33;10.00;;;17.10;99.90;;;;;;4965685;28;20426;-90
2021/08/29 12:32:41;;;;;;;10.87;9.97;;;17.10;99.90;;;;;;4965656;28;20433;-90
2021/08/29 12:35:11;;;;;;;10.90;10.00;;;17.00;99.90;;;;;;4982336;28;20534;-90
2021/08/29 12:37:43;;;;;;;9.33;8.63;;;17.10;99.90;;;;;;4965903;28;20472;-91
2021/08/29 12:40:19;;;;;;;10.23;9.60;;;18.00;99.90;;;;;;4950513;28;20425;-89
2021/08/29 12:42:46;;;;;;;8.63;8.07;;;17.00;99.90;;;;;;4964969;28;20457;-89
2021/08/29 12:45:13;;;;;;;9.73;9.13;;;17.60;99.90;;;;;;4982280;28;20897;-89
2021/08/29 12:47:54;;;;;;;9.00;8.50;;;19.50;99.90;;;;;;4965392;28;20901;-89
2021/08/29 12:50:31;;;;;;;9.13;8.63;;;17.10;99.90;;;;;;4983007;28;20413;-89
2021/08/29 12:53:10;;;;;;;10.30;9.60;;;17.00;99.90;;;;;;4984454;28;20492;-90
2021/08/29 12:55:40;;;;;;;11.30;10.50;;;17.70;99.90;;;;;;4968360;28;20529;-90
2021/08/29 12:58:18;;;;;;;9.50;9.00;;;17.70;99.90;;;;;;4986036;28;20449;-88
2021/08/29 13:00:59;;;;;;;9.90;9.30;;;17.40;99.90;;;;;;4967045;28;20425;-89
2021/08/29 13:03:25;;;;;;;11.50;10.40;;;17.00;99.90;;;;;;4983237;28;20936;-89
2021/08/29 13:05:54;;;;;;;10.30;9.60;;;17.30;99.90;;;;;;4983711;28;20742;-90
2021/08/29 13:08:43;;;;;;;10.13;9.40;;;18.00;99.90;;;;;;4981116;28;20425;-87
2021/08/29 13:11:22;;;;;;;9.73;9.13;;;17.30;99.90;;;;;;4963788;28;20448;-89
2021/08/29 13:13:56;;;;;;;10.50;9.70;;;17.30;99.90;;;;;;4980773;28;20464;-90
2021/08/29 13:17:05;;;;;;;10.50;9.77;;;17.50;99.90;;;;;;4967736;28;20465;-91
2021/08/29 13:19:35;;;;;;;10.83;9.00;;;15.60;99.90;;;;;;4969113;28;20412;-90
2021/08/29 13:22:03;;;;;;;10.90;10.10;;;17.20;99.90;;;;;;4969917;28;20774;-90
2021/08/29 13:24:30;;;;;;;10.10;9.40;;;18.30;99.90;;;;;;4967797;28;20408;-90